sensor_id;sensor_type;location;lat;lon;timestamp;temperature;humidity
19256;DHT22;9762;52.490;13.410;2022-12-29T00:01:45;11.50;99.90
19256;DHT22;9762;52.490;13.410;2022-12-29T00:04:12;11.50;99.90
19256;DHT22;9762;52.490;13.410;2022-12-29T00:06:38;11.40;99.90
19256;DHT22;9762;52.490;13.410;2022-12-29T00:09:04;11.50;99.90
19256;DHT22;9762;52.490;13.410;2022-12-29T00:11:30;11.40;99.90
19256;DHT22;9762;52.490;13.410;2022-12-29T00:13:55;11.40;99.90
19256;DHT22;9762;52.490;13.410;2022-12-29T00:16:44;11.40;99.90
19256;DHT22;9762;52.490;13.410;2022-12-29T00:19:11;11.40;99.90
19256;DHT22;9762;52.490;13.410;2022-12-29T00:21:55;11.40;99.90
19256;DHT22;9762;52.490;13.410;2022-12-29T00:24:40;11.40;99.90
19256;DHT22;9762;52.490;13.410;2022-12-29T00:27:25;11.40;99.90
19256;DHT22;9762;52.490;13.410;2022-12-29T00:30:16;11.30;99.90
19256;DHT22;9762;52.490;13.410;2022-12-29T00:33:07;11.30;99.90
19256;DHT22;9762;52.490;13.410;2022-12-29T00:35:54;11.30;99.90
19256;DHT22;9762;52.490;13.410;2022-12-29T00:38:22;11.30;99.90
19256;DHT22;9762;52.490;13.410;2022-12-29T00:41:06;11.30;99.90
19256;DHT22;9762;52.490;13.410;2022-12-29T00:43:50;11.40;99.90
19256;DHT22;9762;52.490;13.410;2022-12-29T00:46:38;11.40;99.90
19256;DHT22;9762;52.490;13.410;2022-12-29T00:49:05;11.40;99.90
19256;DHT22;9762;52.490;13.410;2022-12-29T00:51:50;11.30;99.90
19256;DHT22;9762;52.490;13.410;2022-12-29T00:54:17;11.30;99.90
19256;DHT22;9762;52.490;13.410;2022-12-29T00:56:42;11.30;99.90
19256;DHT22;9762;52.490;13.410;2022-12-29T00:59:10;11.30;99.90
19256;DHT22;9762;52.490;13.410;2022-12-29T01:01:37;11.30;99.90
19256;DHT22;9762;52.490;13.410;2022-12-29T01:04:03;11.30;99.90
19256;DHT22;9762;52.490;13.410;2022-12-29T01:06:29;11.30;99.90
19256;DHT22;9762;52.490;13.410;2022-12-29T01:08:54;11.30;99.90
19256;DHT22;9762;52.490;13.410;2022-12-29T01:11:39;11.30;99.90
19256;DHT22;9762;52.490;13.410;2022-12-29T01:14:05;11.30;99.90
19256;DHT22;9762;52.490;13.410;2022-12-29T01:16:31;11.40;99.90
19256;DHT22;9762;52.490;13.410;2022-12-29T01:18:57;11.40;99.90
19256;DHT22;9762;52.490;13.410;2022-12-29T01:21:23;11.40;99.90
19256;DHT22;9762;52.490;13.410;2022-12-29T01:23:49;11.40;99.90
19256;DHT22;9762;52.490;13.410;2022-12-29T01:26:16;11.40;99.90
19256;DHT22;9762;52.490;13.410;2022-12-29T01:28:42;11.40;99.90
19256;DHT22;9762;52.490;13.410;2022-12-29T01:31:11;11.50;99.90
19256;DHT22;9762;52.490;13.410;2022-12-29T01:33:38;11.50;99.90
19256;DHT22;9762;52.490;13.410;2022-12-29T01:36:05;11.50;99.90
19256;DHT22;9762;52.490;13.410;2022-12-29T01:38:32;11.50;99.90
19256;DHT22;9762;52.490;13.410;2022-12-29T01:40:57;11.50;99.90
19256;DHT22;9762;52.490;13.410;2022-12-29T01:43:48;11.50;99.90
19256;DHT22;9762;52.490;13.410;2022-12-29T01:51:30;11.50;99.90
19256;DHT22;9762;52.490;13.410;2022-12-29T01:53:57;11.50;99.90
19256;DHT22;9762;52.490;13.410;2022-12-29T01:56:24;11.40;99.90
19256;DHT22;9762;52.490;13.410;2022-12-29T01:58:55;11.40;99.90
19256;DHT22;9762;52.490;13.410;2022-12-29T02:01:25;11.50;99.90
19256;DHT22;9762;52.490;13.410;2022-12-29T02:03:51;11.50;99.90
19256;DHT22;9762;52.490;13.410;2022-12-29T02:06:27;11.70;99.90
19256;DHT22;9762;52.490;13.410;2022-12-29T02:08:55;11.50;99.90
19256;DHT22;9762;52.490;13.410;2022-12-29T02:11:23;11.50;99.90
19256;DHT22;9762;52.490;13.410;2022-12-29T02:13:50;11.50;99.90
19256;DHT22;9762;52.490;13.410;2022-12-29T02:25:18;11.60;99.90
19256;DHT22;9762;52.490;13.410;2022-12-29T02:38:48;11.60;99.90
19256;DHT22;9762;52.490;13.410;2022-12-29T02:49:06;11.60;99.50
19256;DHT22;9762;52.490;13.410;2022-12-29T02:54:20;11.60;99.40
19256;DHT22;9762;52.490;13.410;2022-12-29T02:59:47;11.70;99.10
19256;DHT22;9762;52.490;13.410;2022-12-29T03:05:25;11.70;98.90
19256;DHT22;9762;52.490;13.410;2022-12-29T03:08:05;11.70;99.00
19256;DHT22;9762;52.490;13.410;2022-12-29T03:10:41;11.70;98.80
19256;DHT22;9762;52.490;13.410;2022-12-29T03:13:35;11.70;98.70
19256;DHT22;9762;52.490;13.410;2022-12-29T03:19:10;11.70;98.80
19256;DHT22;9762;52.490;13.410;2022-12-29T03:21:43;11.70;98.80
19256;DHT22;9762;52.490;13.410;2022-12-29T03:24:35;11.80;98.70
19256;DHT22;9762;52.490;13.410;2022-12-29T03:27:04;11.80;98.70
19256;DHT22;9762;52.490;13.410;2022-12-29T03:29:34;11.90;98.60
19256;DHT22;9762;52.490;13.410;2022-12-29T03:32:02;11.90;98.60
19256;DHT22;9762;52.490;13.410;2022-12-29T03:34:30;12.00;98.40
19256;DHT22;9762;52.490;13.410;2022-12-29T03:37:06;11.90;98.30
19256;DHT22;9762;52.490;13.410;2022-12-29T03:39:34;12.00;98.40
19256;DHT22;9762;52.490;13.410;2022-12-29T03:42:04;12.00;98.30
19256;DHT22;9762;52.490;13.410;2022-12-29T03:44:42;12.10;98.20
19256;DHT22;9762;52.490;13.410;2022-12-29T03:47:11;12.10;98.20
19256;DHT22;9762;52.490;13.410;2022-12-29T03:49:37;12.10;98.20
19256;DHT22;9762;52.490;13.410;2022-12-29T03:52:03;12.10;98.10
19256;DHT22;9762;52.490;13.410;2022-12-29T03:54:30;12.20;98.10
19256;DHT22;9762;52.490;13.410;2022-12-29T03:56:56;12.20;98.00
19256;DHT22;9762;52.490;13.410;2022-12-29T03:59:21;12.20;98.00
19256;DHT22;9762;52.490;13.410;2022-12-29T04:01:47;12.20;98.00
19256;DHT22;9762;52.490;13.410;2022-12-29T04:04:13;12.20;98.10
19256;DHT22;9762;52.490;13.410;2022-12-29T04:06:39;12.30;98.20
19256;DHT22;9762;52.490;13.410;2022-12-29T04:09:05;12.30;98.10
19256;DHT22;9762;52.490;13.410;2022-12-29T04:11:30;12.30;98.10
19256;DHT22;9762;52.490;13.410;2022-12-29T04:13:56;12.40;98.00
19256;DHT22;9762;52.490;13.410;2022-12-29T04:16:21;12.40;97.90
19256;DHT22;9762;52.490;13.410;2022-12-29T04:18:47;12.40;97.90
19256;DHT22;9762;52.490;13.410;2022-12-29T04:21:12;12.40;98.40
19256;DHT22;9762;52.490;13.410;2022-12-29T04:23:39;12.40;98.00
19256;DHT22;9762;52.490;13.410;2022-12-29T04:26:05;12.40;97.90
19256;DHT22;9762;52.490;13.410;2022-12-29T04:28:35;12.40;98.00
19256;DHT22;9762;52.490;13.410;2022-12-29T04:31:02;12.40;97.90
19256;DHT22;9762;52.490;13.410;2022-12-29T04:33:28;12.30;97.90
19256;DHT22;9762;52.490;13.410;2022-12-29T04:35:53;12.40;98.00
19256;DHT22;9762;52.490;13.410;2022-12-29T04:38:20;12.40;98.00
19256;DHT22;9762;52.490;13.410;2022-12-29T04:40:46;12.40;97.90
19256;DHT22;9762;52.490;13.410;2022-12-29T04:43:13;12.40;97.90
19256;DHT22;9762;52.490;13.410;2022-12-29T04:45:43;12.40;97.80
19256;DHT22;9762;52.490;13.410;2022-12-29T04:48:09;12.40;97.90
19256;DHT22;9762;52.490;13.410;2022-12-29T04:50:34;12.40;97.80
19256;DHT22;9762;52.490;13.410;2022-12-29T04:53:00;12.40;97.80
19256;DHT22;9762;52.490;13.410;2022-12-29T04:55:26;12.40;97.90
19256;DHT22;9762;52.490;13.410;2022-12-29T04:57:52;12.40;97.90
19256;DHT22;9762;52.490;13.410;2022-12-29T05:00:18;12.40;97.80
19256;DHT22;9762;52.490;13.410;2022-12-29T05:02:44;12.50;97.90
19256;DHT22;9762;52.490;13.410;2022-12-29T05:05:09;12.50;97.80
19256;DHT22;9762;52.490;13.410;2022-12-29T05:07:35;12.50;97.90
19256;DHT22;9762;52.490;13.410;2022-12-29T05:10:01;12.40;97.90
19256;DHT22;9762;52.490;13.410;2022-12-29T05:12:30;12.50;98.00
19256;DHT22;9762;52.490;13.410;2022-12-29T05:14:56;12.40;98.00
19256;DHT22;9762;52.490;13.410;2022-12-29T05:17:21;12.50;98.10
19256;DHT22;9762;52.490;13.410;2022-12-29T05:19:47;12.50;98.00
19256;DHT22;9762;52.490;13.410;2022-12-29T05:22:13;12.50;98.10
19256;DHT22;9762;52.490;13.410;2022-12-29T05:24:39;12.50;98.00
19256;DHT22;9762;52.490;13.410;2022-12-29T05:27:05;12.50;98.10
19256;DHT22;9762;52.490;13.410;2022-12-29T05:29:31;12.50;98.10
19256;DHT22;9762;52.490;13.410;2022-12-29T05:31:56;12.50;98.10
19256;DHT22;9762;52.490;13.410;2022-12-29T05:34:22;12.50;98.20
19256;DHT22;9762;52.490;13.410;2022-12-29T05:36:48;12.50;98.30
19256;DHT22;9762;52.490;13.410;2022-12-29T05:39:14;12.50;98.30
19256;DHT22;9762;52.490;13.410;2022-12-29T05:41:39;12.50;98.40
19256;DHT22;9762;52.490;13.410;2022-12-29T05:44:05;12.50;98.40
19256;DHT22;9762;52.490;13.410;2022-12-29T05:46:31;12.60;98.30
19256;DHT22;9762;52.490;13.410;2022-12-29T05:48:56;12.60;98.30
19256;DHT22;9762;52.490;13.410;2022-12-29T05:51:22;12.60;98.40
19256;DHT22;9762;52.490;13.410;2022-12-29T05:53:47;12.70;98.30
19256;DHT22;9762;52.490;13.410;2022-12-29T05:56:13;12.70;98.40
19256;DHT22;9762;52.490;13.410;2022-12-29T05:58:39;12.70;98.40
19256;DHT22;9762;52.490;13.410;2022-12-29T06:01:04;12.70;98.40
19256;DHT22;9762;52.490;13.410;2022-12-29T06:03:30;12.70;98.40
19256;DHT22;9762;52.490;13.410;2022-12-29T06:05:56;12.80;98.40
19256;DHT22;9762;52.490;13.410;2022-12-29T06:08:21;12.80;98.40
19256;DHT22;9762;52.490;13.410;2022-12-29T06:10:47;12.80;98.40
19256;DHT22;9762;52.490;13.410;2022-12-29T06:13:13;12.90;98.30
19256;DHT22;9762;52.490;13.410;2022-12-29T06:15:38;12.90;98.30
19256;DHT22;9762;52.490;13.410;2022-12-29T06:18:04;12.90;98.30
19256;DHT22;9762;52.490;13.410;2022-12-29T06:20:29;12.90;98.40
19256;DHT22;9762;52.490;13.410;2022-12-29T06:22:55;12.90;98.30
19256;DHT22;9762;52.490;13.410;2022-12-29T06:25:21;12.90;98.30
19256;DHT22;9762;52.490;13.410;2022-12-29T06:27:46;12.90;98.30
19256;DHT22;9762;52.490;13.410;2022-12-29T06:30:12;12.90;98.40
19256;DHT22;9762;52.490;13.410;2022-12-29T06:32:38;12.90;98.40
19256;DHT22;9762;52.490;13.410;2022-12-29T06:35:04;13.00;98.30
19256;DHT22;9762;52.490;13.410;2022-12-29T06:37:31;13.00;98.40
19256;DHT22;9762;52.490;13.410;2022-12-29T06:39:57;13.00;98.40
19256;DHT22;9762;52.490;13.410;2022-12-29T06:42:23;13.00;98.30
19256;DHT22;9762;52.490;13.410;2022-12-29T06:44:49;13.10;98.10
19256;DHT22;9762;52.490;13.410;2022-12-29T06:47:15;13.10;98.10
19256;DHT22;9762;52.490;13.410;2022-12-29T06:49:41;13.10;98.10
19256;DHT22;9762;52.490;13.410;2022-12-29T06:52:06;13.10;98.10
19256;DHT22;9762;52.490;13.410;2022-12-29T06:54:32;13.10;98.20
19256;DHT22;9762;52.490;13.410;2022-12-29T06:56:58;13.10;98.10
19256;DHT22;9762;52.490;13.410;2022-12-29T06:59:23;13.20;98.00
19256;DHT22;9762;52.490;13.410;2022-12-29T07:01:50;13.20;98.00
19256;DHT22;9762;52.490;13.410;2022-12-29T07:04:16;13.20;98.00
19256;DHT22;9762;52.490;13.410;2022-12-29T07:06:41;13.10;98.00
19256;DHT22;9762;52.490;13.410;2022-12-29T07:09:08;13.10;98.00
19256;DHT22;9762;52.490;13.410;2022-12-29T07:11:34;13.10;98.00
19256;DHT22;9762;52.490;13.410;2022-12-29T07:14:00;13.00;98.10
19256;DHT22;9762;52.490;13.410;2022-12-29T07:16:26;13.00;98.20
19256;DHT22;9762;52.490;13.410;2022-12-29T07:18:51;13.10;98.20
19256;DHT22;9762;52.490;13.410;2022-12-29T07:21:18;13.10;98.20
19256;DHT22;9762;52.490;13.410;2022-12-29T07:23:43;13.00;98.10
19256;DHT22;9762;52.490;13.410;2022-12-29T07:26:12;13.00;98.10
19256;DHT22;9762;52.490;13.410;2022-12-29T07:28:38;13.00;98.40
19256;DHT22;9762;52.490;13.410;2022-12-29T07:31:05;12.90;98.50
19256;DHT22;9762;52.490;13.410;2022-12-29T07:33:32;12.90;98.70
19256;DHT22;9762;52.490;13.410;2022-12-29T07:35:58;12.90;98.80
19256;DHT22;9762;52.490;13.410;2022-12-29T07:38:24;12.90;98.80
19256;DHT22;9762;52.490;13.410;2022-12-29T07:40:50;12.90;98.70
19256;DHT22;9762;52.490;13.410;2022-12-29T07:43:16;12.90;98.70
19256;DHT22;9762;52.490;13.410;2022-12-29T07:45:41;12.90;98.70
19256;DHT22;9762;52.490;13.410;2022-12-29T07:48:07;12.90;99.20
19256;DHT22;9762;52.490;13.410;2022-12-29T07:50:34;12.90;98.90
19256;DHT22;9762;52.490;13.410;2022-12-29T07:53:00;12.90;98.90
19256;DHT22;9762;52.490;13.410;2022-12-29T07:55:25;12.90;98.90
19256;DHT22;9762;52.490;13.410;2022-12-29T07:57:55;12.90;99.00
19256;DHT22;9762;52.490;13.410;2022-12-29T08:00:21;12.90;99.00
19256;DHT22;9762;52.490;13.410;2022-12-29T08:02:47;13.00;99.00
19256;DHT22;9762;52.490;13.410;2022-12-29T08:05:12;13.00;98.90
19256;DHT22;9762;52.490;13.410;2022-12-29T08:07:38;13.00;98.90
19256;DHT22;9762;52.490;13.410;2022-12-29T08:10:04;13.00;98.90
19256;DHT22;9762;52.490;13.410;2022-12-29T08:12:30;13.10;98.80
19256;DHT22;9762;52.490;13.410;2022-12-29T08:14:56;13.20;98.70
19256;DHT22;9762;52.490;13.410;2022-12-29T08:17:21;13.20;98.60
19256;DHT22;9762;52.490;13.410;2022-12-29T08:19:47;13.20;98.50
19256;DHT22;9762;52.490;13.410;2022-12-29T08:22:14;13.20;98.50
19256;DHT22;9762;52.490;13.410;2022-12-29T08:24:39;13.30;98.40
19256;DHT22;9762;52.490;13.410;2022-12-29T08:27:05;13.30;98.30
19256;DHT22;9762;52.490;13.410;2022-12-29T08:29:31;13.30;98.30
19256;DHT22;9762;52.490;13.410;2022-12-29T08:31:56;13.40;98.30
19256;DHT22;9762;52.490;13.410;2022-12-29T08:34:22;13.40;98.40
19256;DHT22;9762;52.490;13.410;2022-12-29T08:36:48;13.40;98.40
19256;DHT22;9762;52.490;13.410;2022-12-29T08:39:14;13.30;98.30
19256;DHT22;9762;52.490;13.410;2022-12-29T08:41:39;13.30;98.30
19256;DHT22;9762;52.490;13.410;2022-12-29T08:44:05;13.30;98.20
19256;DHT22;9762;52.490;13.410;2022-12-29T08:46:30;13.30;98.20
19256;DHT22;9762;52.490;13.410;2022-12-29T08:48:56;13.30;98.20
19256;DHT22;9762;52.490;13.410;2022-12-29T08:51:22;13.30;98.30
19256;DHT22;9762;52.490;13.410;2022-12-29T08:53:47;13.30;98.70
19256;DHT22;9762;52.490;13.410;2022-12-29T08:56:13;13.20;98.40
19256;DHT22;9762;52.490;13.410;2022-12-29T08:58:39;13.30;98.50
19256;DHT22;9762;52.490;13.410;2022-12-29T09:01:06;13.30;98.40
19256;DHT22;9762;52.490;13.410;2022-12-29T09:03:31;13.40;98.40
19256;DHT22;9762;52.490;13.410;2022-12-29T09:05:57;13.40;98.40
19256;DHT22;9762;52.490;13.410;2022-12-29T09:08:23;13.40;98.30
19256;DHT22;9762;52.490;13.410;2022-12-29T09:10:49;13.40;98.30
19256;DHT22;9762;52.490;13.410;2022-12-29T09:13:15;13.40;98.40
19256;DHT22;9762;52.490;13.410;2022-12-29T09:15:41;13.40;98.40
19256;DHT22;9762;52.490;13.410;2022-12-29T09:18:08;13.50;98.20
19256;DHT22;9762;52.490;13.410;2022-12-29T09:20:33;13.50;98.10
19256;DHT22;9762;52.490;13.410;2022-12-29T09:22:59;13.50;98.00
19256;DHT22;9762;52.490;13.410;2022-12-29T09:25:25;13.50;98.00
19256;DHT22;9762;52.490;13.410;2022-12-29T09:27:51;13.50;98.20
19256;DHT22;9762;52.490;13.410;2022-12-29T09:30:19;13.50;98.10
19256;DHT22;9762;52.490;13.410;2022-12-29T09:32:45;13.60;98.10
19256;DHT22;9762;52.490;13.410;2022-12-29T09:35:12;13.60;98.10
19256;DHT22;9762;52.490;13.410;2022-12-29T09:37:37;13.60;98.10
19256;DHT22;9762;52.490;13.410;2022-12-29T09:40:04;13.60;98.10
19256;DHT22;9762;52.490;13.410;2022-12-29T09:43:05;13.60;98.10
19256;DHT22;9762;52.490;13.410;2022-12-29T09:45:44;13.50;98.30
19256;DHT22;9762;52.490;13.410;2022-12-29T09:48:22;13.50;98.30
19256;DHT22;9762;52.490;13.410;2022-12-29T09:50:56;13.50;98.40
19256;DHT22;9762;52.490;13.410;2022-12-29T09:53:39;13.50;98.30
19256;DHT22;9762;52.490;13.410;2022-12-29T09:56:15;13.50;98.30
19256;DHT22;9762;52.490;13.410;2022-12-29T09:59:08;13.60;98.30
19256;DHT22;9762;52.490;13.410;2022-12-29T10:02:02;13.70;99.90
19256;DHT22;9762;52.490;13.410;2022-12-29T10:04:30;13.80;99.90
19256;DHT22;9762;52.490;13.410;2022-12-29T10:07:17;13.90;99.90
19256;DHT22;9762;52.490;13.410;2022-12-29T10:20:48;14.00;97.80
19256;DHT22;9762;52.490;13.410;2022-12-29T10:25:46;14.10;97.70
19256;DHT22;9762;52.490;13.410;2022-12-29T10:28:24;14.10;97.70
19256;DHT22;9762;52.490;13.410;2022-12-29T10:30:51;14.20;99.90
19256;DHT22;9762;52.490;13.410;2022-12-29T10:33:33;14.20;97.80
19256;DHT22;9762;52.490;13.410;2022-12-29T10:36:13;14.20;97.60
19256;DHT22;9762;52.490;13.410;2022-12-29T10:38:48;14.30;97.60
19256;DHT22;9762;52.490;13.410;2022-12-29T10:41:39;14.40;97.50
19256;DHT22;9762;52.490;13.410;2022-12-29T10:44:10;14.40;97.30
19256;DHT22;9762;52.490;13.410;2022-12-29T10:46:38;14.50;97.30
19256;DHT22;9762;52.490;13.410;2022-12-29T10:49:05;14.60;97.10
19256;DHT22;9762;52.490;13.410;2022-12-29T10:51:36;14.60;96.90
19256;DHT22;9762;52.490;13.410;2022-12-29T10:54:18;14.70;96.80
19256;DHT22;9762;52.490;13.410;2022-12-29T10:56:52;14.70;96.70
19256;DHT22;9762;52.490;13.410;2022-12-29T10:59:30;14.70;96.60
19256;DHT22;9762;52.490;13.410;2022-12-29T11:07:24;14.70;96.50
19256;DHT22;9762;52.490;13.410;2022-12-29T11:09:51;14.80;96.50
19256;DHT22;9762;52.490;13.410;2022-12-29T11:12:26;14.70;96.60
19256;DHT22;9762;52.490;13.410;2022-12-29T11:20:47;14.80;96.50
19256;DHT22;9762;52.490;13.410;2022-12-29T11:26:15;14.80;96.50
19256;DHT22;9762;52.490;13.410;2022-12-29T11:28:44;14.80;96.60
19256;DHT22;9762;52.490;13.410;2022-12-29T11:31:10;14.80;96.70
19256;DHT22;9762;52.490;13.410;2022-12-29T11:33:40;14.80;96.70
19256;DHT22;9762;52.490;13.410;2022-12-29T11:36:08;14.70;96.90
19256;DHT22;9762;52.490;13.410;2022-12-29T11:38:36;14.70;97.30
19256;DHT22;9762;52.490;13.410;2022-12-29T11:41:04;14.70;97.60
19256;DHT22;9762;52.490;13.410;2022-12-29T11:43:33;14.60;97.90
19256;DHT22;9762;52.490;13.410;2022-12-29T11:46:01;14.60;98.30
19256;DHT22;9762;52.490;13.410;2022-12-29T11:48:32;14.60;98.40
19256;DHT22;9762;52.490;13.410;2022-12-29T11:50:59;14.50;98.50
19256;DHT22;9762;52.490;13.410;2022-12-29T11:53:42;14.50;98.70
19256;DHT22;9762;52.490;13.410;2022-12-29T11:56:12;14.40;98.80
19256;DHT22;9762;52.490;13.410;2022-12-29T11:58:39;14.50;98.80
19256;DHT22;9762;52.490;13.410;2022-12-29T12:01:24;14.50;98.90
19256;DHT22;9762;52.490;13.410;2022-12-29T12:04:03;14.50;98.90
19256;DHT22;9762;52.490;13.410;2022-12-29T12:06:33;14.50;98.90
19256;DHT22;9762;52.490;13.410;2022-12-29T12:09:07;14.40;99.00
19256;DHT22;9762;52.490;13.410;2022-12-29T12:11:39;14.30;99.40
19256;DHT22;9762;52.490;13.410;2022-12-29T12:14:40;14.30;99.70
19256;DHT22;9762;52.490;13.410;2022-12-29T12:17:19;14.20;99.90
19256;DHT22;9762;52.490;13.410;2022-12-29T12:22:40;14.10;99.90
19256;DHT22;9762;52.490;13.410;2022-12-29T12:25:17;14.00;99.90
19256;DHT22;9762;52.490;13.410;2022-12-29T12:28:14;14.00;99.90
19256;DHT22;9762;52.490;13.410;2022-12-29T12:30:48;14.00;99.90
19256;DHT22;9762;52.490;13.410;2022-12-29T12:33:55;13.90;99.90
19256;DHT22;9762;52.490;13.410;2022-12-29T12:36:57;13.90;99.90
19256;DHT22;9762;52.490;13.410;2022-12-29T12:39:31;13.90;99.90
19256;DHT22;9762;52.490;13.410;2022-12-29T12:44:47;13.80;99.90
19256;DHT22;9762;52.490;13.410;2022-12-29T12:47:23;13.70;99.90
19256;DHT22;9762;52.490;13.410;2022-12-29T12:50:43;13.80;99.90
19256;DHT22;9762;52.490;13.410;2022-12-29T12:56:03;13.80;99.90
19256;DHT22;9762;52.490;13.410;2022-12-29T13:09:52;13.60;99.90
19256;DHT22;9762;52.490;13.410;2022-12-29T13:15:16;13.60;99.90
19256;DHT22;9762;52.490;13.410;2022-12-29T13:18:05;13.60;99.90
19256;DHT22;9762;52.490;13.410;2022-12-29T13:21:40;13.60;99.90
19256;DHT22;9762;52.490;13.410;2022-12-29T13:26:43;13.70;99.90
19256;DHT22;9762;52.490;13.410;2022-12-29T13:32:53;13.70;99.90
19256;DHT22;9762;52.490;13.410;2022-12-29T13:40:34;13.60;99.90
19256;DHT22;9762;52.490;13.410;2022-12-29T13:43:01;13.70;99.90
19256;DHT22;9762;52.490;13.410;2022-12-29T13:45:30;13.60;99.90
19256;DHT22;9762;52.490;13.410;2022-12-29T13:48:21;13.60;99.90
19256;DHT22;9762;52.490;13.410;2022-12-29T13:50:58;13.60;99.90
19256;DHT22;9762;52.490;13.410;2022-12-29T13:56:26;13.60;99.90
19256;DHT22;9762;52.490;13.410;2022-12-29T13:59:08;13.60;99.90
19256;DHT22;9762;52.490;13.410;2022-12-29T14:04:24;13.70;99.90
19256;DHT22;9762;52.490;13.410;2022-12-29T14:07:16;13.70;99.90
19256;DHT22;9762;52.490;13.410;2022-12-29T14:09:47;13.70;99.90
19256;DHT22;9762;52.490;13.410;2022-12-29T14:15:23;13.80;99.90
19256;DHT22;9762;52.490;13.410;2022-12-29T14:20:37;13.60;99.90
19256;DHT22;9762;52.490;13.410;2022-12-29T14:28:46;13.70;99.90
19256;DHT22;9762;52.490;13.410;2022-12-29T14:36:40;13.80;99.90
19256;DHT22;9762;52.490;13.410;2022-12-29T14:44:34;13.80;99.90
19256;DHT22;9762;52.490;13.410;2022-12-29T14:47:19;13.70;99.90
19256;DHT22;9762;52.490;13.410;2022-12-29T14:49:45;13.70;99.90
19256;DHT22;9762;52.490;13.410;2022-12-29T14:52:18;13.70;99.90
19256;DHT22;9762;52.490;13.410;2022-12-29T14:54:59;13.70;99.90
19256;DHT22;9762;52.490;13.410;2022-12-29T14:57:49;13.70;99.90
19256;DHT22;9762;52.490;13.410;2022-12-29T15:00:27;13.70;99.90
19256;DHT22;9762;52.490;13.410;2022-12-29T15:03:06;13.70;99.90
19256;DHT22;9762;52.490;13.410;2022-12-29T15:08:24;13.70;99.90
19256;DHT22;9762;52.490;13.410;2022-12-29T15:11:09;13.70;99.90
19256;DHT22;9762;52.490;13.410;2022-12-29T15:13:39;13.70;99.90
19256;DHT22;9762;52.490;13.410;2022-12-29T15:16:24;13.70;99.90
19256;DHT22;9762;52.490;13.410;2022-12-29T15:18:50;13.70;99.90
19256;DHT22;9762;52.490;13.410;2022-12-29T15:21:17;13.70;99.90
19256;DHT22;9762;52.490;13.410;2022-12-29T15:23:46;13.60;99.90
19256;DHT22;9762;52.490;13.410;2022-12-29T15:26:12;13.70;99.90
19256;DHT22;9762;52.490;13.410;2022-12-29T15:28:42;13.60;99.90
19256;DHT22;9762;52.490;13.410;2022-12-29T15:31:17;13.60;99.90
19256;DHT22;9762;52.490;13.410;2022-12-29T15:33:46;13.50;99.90
19256;DHT22;9762;52.490;13.410;2022-12-29T15:36:21;13.50;99.90
19256;DHT22;9762;52.490;13.410;2022-12-29T15:38:47;13.60;99.90
19256;DHT22;9762;52.490;13.410;2022-12-29T15:46:04;13.50;99.90
19256;DHT22;9762;52.490;13.410;2022-12-29T15:48:31;13.50;99.90
19256;DHT22;9762;52.490;13.410;2022-12-29T15:50:57;13.50;99.90
19256;DHT22;9762;52.490;13.410;2022-12-29T15:53:27;13.50;99.90
19256;DHT22;9762;52.490;13.410;2022-12-29T15:56:07;13.40;99.90
19256;DHT22;9762;52.490;13.410;2022-12-29T15:58:44;13.40;99.90
19256;DHT22;9762;52.490;13.410;2022-12-29T16:01:23;13.40;99.90
19256;DHT22;9762;52.490;13.410;2022-12-29T16:03:50;13.40;99.90
19256;DHT22;9762;52.490;13.410;2022-12-29T16:06:43;13.30;99.90
19256;DHT22;9762;52.490;13.410;2022-12-29T16:09:17;13.30;99.90
19256;DHT22;9762;52.490;13.410;2022-12-29T16:11:55;13.30;99.90
19256;DHT22;9762;52.490;13.410;2022-12-29T16:14:33;13.30;99.90
19256;DHT22;9762;52.490;13.410;2022-12-29T16:17:02;13.20;99.90
19256;DHT22;9762;52.490;13.410;2022-12-29T16:19:34;13.20;99.90
19256;DHT22;9762;52.490;13.410;2022-12-29T16:22:03;13.20;99.90
19256;DHT22;9762;52.490;13.410;2022-12-29T16:24:32;13.20;99.90
19256;DHT22;9762;52.490;13.410;2022-12-29T16:27:21;13.20;99.90
19256;DHT22;9762;52.490;13.410;2022-12-29T16:29:51;13.20;99.90
19256;DHT22;9762;52.490;13.410;2022-12-29T16:32:29;13.20;99.90
19256;DHT22;9762;52.490;13.410;2022-12-29T16:37:36;13.10;99.90
19256;DHT22;9762;52.490;13.410;2022-12-29T16:47:49;13.00;99.50
19256;DHT22;9762;52.490;13.410;2022-12-29T16:50:36;13.00;99.40
19256;DHT22;9762;52.490;13.410;2022-12-29T16:53:03;13.00;99.30
19256;DHT22;9762;52.490;13.410;2022-12-29T16:55:29;12.90;99.20
19256;DHT22;9762;52.490;13.410;2022-12-29T16:57:56;12.90;99.20
19256;DHT22;9762;52.490;13.410;2022-12-29T17:00:28;12.90;99.40
19256;DHT22;9762;52.490;13.410;2022-12-29T17:02:57;12.90;98.90
19256;DHT22;9762;52.490;13.410;2022-12-29T17:05:23;12.90;98.90
19256;DHT22;9762;52.490;13.410;2022-12-29T17:07:50;12.90;98.90
19256;DHT22;9762;52.490;13.410;2022-12-29T17:10:16;12.90;98.70
19256;DHT22;9762;52.490;13.410;2022-12-29T17:12:43;12.90;98.50
19256;DHT22;9762;52.490;13.410;2022-12-29T17:15:23;12.90;98.40
19256;DHT22;9762;52.490;13.410;2022-12-29T17:17:51;12.90;98.30
19256;DHT22;9762;52.490;13.410;2022-12-29T17:20:22;12.80;98.00
19256;DHT22;9762;52.490;13.410;2022-12-29T17:22:49;12.80;98.10
19256;DHT22;9762;52.490;13.410;2022-12-29T17:25:21;12.80;97.90
19256;DHT22;9762;52.490;13.410;2022-12-29T17:28:00;12.90;97.90
19256;DHT22;9762;52.490;13.410;2022-12-29T17:30:28;12.90;97.70
19256;DHT22;9762;52.490;13.410;2022-12-29T17:33:05;12.90;97.50
19256;DHT22;9762;52.490;13.410;2022-12-29T17:35:33;12.90;97.40
19256;DHT22;9762;52.490;13.410;2022-12-29T17:37:59;12.90;97.30
19256;DHT22;9762;52.490;13.410;2022-12-29T17:40:31;12.90;97.10
19256;DHT22;9762;52.490;13.410;2022-12-29T17:42:58;12.90;97.10
19256;DHT22;9762;52.490;13.410;2022-12-29T17:45:29;12.90;97.00
19256;DHT22;9762;52.490;13.410;2022-12-29T17:47:55;12.90;96.90
19256;DHT22;9762;52.490;13.410;2022-12-29T17:50:25;13.00;96.80
19256;DHT22;9762;52.490;13.410;2022-12-29T17:52:56;13.00;96.70
19256;DHT22;9762;52.490;13.410;2022-12-29T17:55:23;13.00;97.10
19256;DHT22;9762;52.490;13.410;2022-12-29T17:57:50;13.00;96.80
19256;DHT22;9762;52.490;13.410;2022-12-29T18:00:26;13.00;96.70
19256;DHT22;9762;52.490;13.410;2022-12-29T18:02:53;13.10;96.50
19256;DHT22;9762;52.490;13.410;2022-12-29T18:05:20;13.10;96.50
19256;DHT22;9762;52.490;13.410;2022-12-29T18:07:46;13.10;96.50
19256;DHT22;9762;52.490;13.410;2022-12-29T18:10:13;13.10;96.50
19256;DHT22;9762;52.490;13.410;2022-12-29T18:12:41;13.10;96.40
19256;DHT22;9762;52.490;13.410;2022-12-29T18:15:23;13.20;96.40
19256;DHT22;9762;52.490;13.410;2022-12-29T18:18:14;13.20;96.30
19256;DHT22;9762;52.490;13.410;2022-12-29T18:20:40;13.20;96.20
19256;DHT22;9762;52.490;13.410;2022-12-29T18:23:08;13.10;96.20
19256;DHT22;9762;52.490;13.410;2022-12-29T18:25:59;13.10;96.30